Terminal Aerodrome Forecast
Issued by NWS

Home | Current Version | Previous Version | Text Only | Print | Product List | Glossary On
Versions: 1 2 3 4 5 6 7 8 9 10 11 12 13 14 15 16 17
000
FTUS41 KGYX 050520
TAFRKD
TAF
KRKD 050520Z 0506/0606 00000KT 6SM BR SKC
      TEMPO 0506/0510 4SM BR
     FM051000 29006KT P6SM SKC
     FM051600 24009KT P6SM SCT050
      AMD LTD TO CLD VIS AND WIND=

USA.gov is the U.S. government's official web portal to all federal, state and local government web resources and services.